sensor_id;sensor_type;location;lat;lon;timestamp;P1;durP1;ratioP1;P2;durP2;ratioP2
22415;SDS011;12204;50.600;4.608;2023-09-30T00:04:43;38.15;;;19.58;;
22415;SDS011;12204;50.600;4.608;2023-09-30T00:09:48;38.85;;;19.13;;
22415;SDS011;12204;50.600;4.608;2023-09-30T00:14:53;35.72;;;18.60;;
22415;SDS011;12204;50.600;4.608;2023-09-30T00:19:56;35.15;;;18.30;;
22415;SDS011;12204;50.600;4.608;2023-09-30T00:25:02;40.45;;;18.27;;
22415;SDS011;12204;50.600;4.608;2023-09-30T00:30:07;35.83;;;18.42;;
22415;SDS011;12204;50.600;4.608;2023-09-30T00:35:11;31.80;;;17.35;;
22415;SDS011;12204;50.600;4.608;2023-09-30T00:40:16;32.60;;;16.83;;
22415;SDS011;12204;50.600;4.608;2023-09-30T00:45:20;36.60;;;17.25;;
22415;SDS011;12204;50.600;4.608;2023-09-30T00:50:24;32.88;;;16.50;;
22415;SDS011;12204;50.600;4.608;2023-09-30T01:01:19;30.58;;;15.40;;
22415;SDS011;12204;50.600;4.608;2023-09-30T01:06:23;30.92;;;16.30;;
22415;SDS011;12204;50.600;4.608;2023-09-30T01:11:28;35.20;;;16.10;;
22415;SDS011;12204;50.600;4.608;2023-09-30T01:16:33;31.42;;;15.70;;
22415;SDS011;12204;50.600;4.608;2023-09-30T01:21:38;28.33;;;15.05;;
22415;SDS011;12204;50.600;4.608;2023-09-30T01:26:43;27.98;;;14.52;;
22415;SDS011;12204;50.600;4.608;2023-09-30T01:31:46;26.38;;;15.00;;
22415;SDS011;12204;50.600;4.608;2023-09-30T01:36:52;26.60;;;14.98;;
22415;SDS011;12204;50.600;4.608;2023-09-30T01:41:56;30.25;;;14.88;;
22415;SDS011;12204;50.600;4.608;2023-09-30T01:46:59;26.15;;;14.40;;
22415;SDS011;12204;50.600;4.608;2023-09-30T01:52:04;30.02;;;14.50;;
22415;SDS011;12204;50.600;4.608;2023-09-30T01:57:07;27.05;;;14.13;;
22415;SDS011;12204;50.600;4.608;2023-09-30T02:02:11;28.88;;;13.77;;
22415;SDS011;12204;50.600;4.608;2023-09-30T02:07:16;23.85;;;13.35;;
22415;SDS011;12204;50.600;4.608;2023-09-30T02:12:20;26.20;;;13.63;;
22415;SDS011;12204;50.600;4.608;2023-09-30T02:17:24;24.17;;;12.75;;
22415;SDS011;12204;50.600;4.608;2023-09-30T02:22:29;24.35;;;12.93;;
22415;SDS011;12204;50.600;4.608;2023-09-30T02:27:32;23.95;;;12.80;;
22415;SDS011;12204;50.600;4.608;2023-09-30T02:32:36;21.83;;;12.07;;
22415;SDS011;12204;50.600;4.608;2023-09-30T02:37:43;21.73;;;11.88;;
22415;SDS011;12204;50.600;4.608;2023-09-30T02:42:46;22.38;;;11.98;;
22415;SDS011;12204;50.600;4.608;2023-09-30T02:47:50;24.75;;;11.63;;
22415;SDS011;12204;50.600;4.608;2023-09-30T02:52:55;19.45;;;10.95;;
22415;SDS011;12204;50.600;4.608;2023-09-30T02:57:59;18.20;;;10.25;;
22415;SDS011;12204;50.600;4.608;2023-09-30T03:03:04;20.00;;;10.60;;
22415;SDS011;12204;50.600;4.608;2023-09-30T03:08:09;19.25;;;10.27;;
22415;SDS011;12204;50.600;4.608;2023-09-30T03:13:12;20.20;;;10.55;;
22415;SDS011;12204;50.600;4.608;2023-09-30T03:18:15;18.42;;;10.07;;
22415;SDS011;12204;50.600;4.608;2023-09-30T03:23:25;18.58;;;9.60;;
22415;SDS011;12204;50.600;4.608;2023-09-30T03:28:31;18.05;;;9.48;;
22415;SDS011;12204;50.600;4.608;2023-09-30T03:33:35;18.85;;;9.80;;
22415;SDS011;12204;50.600;4.608;2023-09-30T03:38:42;18.58;;;9.00;;
22415;SDS011;12204;50.600;4.608;2023-09-30T03:43:46;18.52;;;9.75;;
22415;SDS011;12204;50.600;4.608;2023-09-30T03:48:50;19.33;;;9.25;;
22415;SDS011;12204;50.600;4.608;2023-09-30T03:53:55;17.63;;;8.80;;
22415;SDS011;12204;50.600;4.608;2023-09-30T03:58:59;18.10;;;8.63;;
22415;SDS011;12204;50.600;4.608;2023-09-30T04:04:03;18.08;;;8.60;;
22415;SDS011;12204;50.600;4.608;2023-09-30T04:09:10;19.90;;;8.85;;
22415;SDS011;12204;50.600;4.608;2023-09-30T04:14:13;17.67;;;8.63;;
22415;SDS011;12204;50.600;4.608;2023-09-30T04:19:18;16.65;;;7.55;;
22415;SDS011;12204;50.600;4.608;2023-09-30T04:24:23;17.33;;;8.23;;
22415;SDS011;12204;50.600;4.608;2023-09-30T04:29:27;15.27;;;8.05;;
22415;SDS011;12204;50.600;4.608;2023-09-30T04:34:31;15.48;;;7.40;;
22415;SDS011;12204;50.600;4.608;2023-09-30T04:39:35;16.15;;;7.68;;
22415;SDS011;12204;50.600;4.608;2023-09-30T04:44:40;13.77;;;7.20;;
22415;SDS011;12204;50.600;4.608;2023-09-30T04:49:45;16.35;;;7.38;;
22415;SDS011;12204;50.600;4.608;2023-09-30T04:54:49;14.70;;;7.18;;
22415;SDS011;12204;50.600;4.608;2023-09-30T05:11:15;15.13;;;6.85;;
22415;SDS011;12204;50.600;4.608;2023-09-30T05:16:18;15.57;;;6.30;;
22415;SDS011;12204;50.600;4.608;2023-09-30T05:21:22;15.85;;;6.13;;
22415;SDS011;12204;50.600;4.608;2023-09-30T05:26:27;12.68;;;6.40;;
22415;SDS011;12204;50.600;4.608;2023-09-30T05:31:30;15.27;;;6.40;;
22415;SDS011;12204;50.600;4.608;2023-09-30T05:36:34;11.65;;;5.97;;
22415;SDS011;12204;50.600;4.608;2023-09-30T05:41:39;12.32;;;5.78;;
22415;SDS011;12204;50.600;4.608;2023-09-30T05:46:43;13.55;;;6.30;;
22415;SDS011;12204;50.600;4.608;2023-09-30T05:51:47;11.25;;;5.57;;
22415;SDS011;12204;50.600;4.608;2023-09-30T05:56:53;11.85;;;5.47;;
22415;SDS011;12204;50.600;4.608;2023-09-30T06:01:57;10.60;;;5.40;;
22415;SDS011;12204;50.600;4.608;2023-09-30T06:07:01;10.88;;;5.25;;
22415;SDS011;12204;50.600;4.608;2023-09-30T06:12:06;14.85;;;5.30;;
22415;SDS011;12204;50.600;4.608;2023-09-30T06:17:10;13.52;;;5.10;;
22415;SDS011;12204;50.600;4.608;2023-09-30T06:22:17;12.10;;;4.93;;
22415;SDS011;12204;50.600;4.608;2023-09-30T06:27:24;10.45;;;4.72;;
22415;SDS011;12204;50.600;4.608;2023-09-30T06:32:27;12.93;;;5.20;;
22415;SDS011;12204;50.600;4.608;2023-09-30T06:37:31;10.48;;;4.88;;
22415;SDS011;12204;50.600;4.608;2023-09-30T06:42:36;10.68;;;4.63;;
22415;SDS011;12204;50.600;4.608;2023-09-30T06:47:41;10.47;;;4.30;;
22415;SDS011;12204;50.600;4.608;2023-09-30T06:52:47;15.18;;;4.35;;
22415;SDS011;12204;50.600;4.608;2023-09-30T06:57:53;14.23;;;3.90;;
22415;SDS011;12204;50.600;4.608;2023-09-30T07:02:56;12.23;;;4.00;;
22415;SDS011;12204;50.600;4.608;2023-09-30T07:08:02;13.00;;;4.13;;
22415;SDS011;12204;50.600;4.608;2023-09-30T07:13:08;8.32;;;3.70;;
22415;SDS011;12204;50.600;4.608;2023-09-30T07:18:11;8.10;;;3.53;;
22415;SDS011;12204;50.600;4.608;2023-09-30T07:23:15;8.27;;;3.65;;
22415;SDS011;12204;50.600;4.608;2023-09-30T07:28:22;13.60;;;3.63;;
22415;SDS011;12204;50.600;4.608;2023-09-30T07:33:26;9.48;;;3.70;;
22415;SDS011;12204;50.600;4.608;2023-09-30T07:38:30;13.27;;;3.63;;
22415;SDS011;12204;50.600;4.608;2023-09-30T07:43:35;16.65;;;3.72;;
22415;SDS011;12204;50.600;4.608;2023-09-30T07:48:38;10.75;;;3.40;;
22415;SDS011;12204;50.600;4.608;2023-09-30T07:53:42;11.48;;;3.58;;
22415;SDS011;12204;50.600;4.608;2023-09-30T07:58:46;10.77;;;3.40;;
22415;SDS011;12204;50.600;4.608;2023-09-30T08:03:53;8.32;;;3.33;;
22415;SDS011;12204;50.600;4.608;2023-09-30T08:08:57;8.55;;;2.85;;
22415;SDS011;12204;50.600;4.608;2023-09-30T08:14:02;12.77;;;3.63;;
22415;SDS011;12204;50.600;4.608;2023-09-30T08:19:07;8.57;;;3.20;;
22415;SDS011;12204;50.600;4.608;2023-09-30T08:24:11;10.20;;;3.10;;
22415;SDS011;12204;50.600;4.608;2023-09-30T08:29:16;8.52;;;3.30;;
22415;SDS011;12204;50.600;4.608;2023-09-30T08:34:19;9.02;;;3.47;;
22415;SDS011;12204;50.600;4.608;2023-09-30T08:39:26;9.38;;;3.65;;
22415;SDS011;12204;50.600;4.608;2023-09-30T08:50:23;10.45;;;3.63;;
22415;SDS011;12204;50.600;4.608;2023-09-30T08:55:27;9.25;;;3.80;;
22415;SDS011;12204;50.600;4.608;2023-09-30T09:00:33;17.98;;;5.20;;
22415;SDS011;12204;50.600;4.608;2023-09-30T09:05:37;68.97;;;10.07;;
22415;SDS011;12204;50.600;4.608;2023-09-30T09:10:53;51.05;;;7.43;;
22415;SDS011;12204;50.600;4.608;2023-09-30T09:16:09;42.15;;;7.18;;
22415;SDS011;12204;50.600;4.608;2023-09-30T09:21:13;24.08;;;6.03;;
22415;SDS011;12204;50.600;4.608;2023-09-30T09:26:24;24.27;;;6.88;;
22415;SDS011;12204;50.600;4.608;2023-09-30T09:31:33;20.33;;;6.10;;
22415;SDS011;12204;50.600;4.608;2023-09-30T09:36:38;18.47;;;5.97;;
22415;SDS011;12204;50.600;4.608;2023-09-30T09:41:49;21.52;;;6.50;;
22415;SDS011;12204;50.600;4.608;2023-09-30T09:46:55;22.30;;;7.28;;
22415;SDS011;12204;50.600;4.608;2023-09-30T09:52:02;19.50;;;6.65;;
22415;SDS011;12204;50.600;4.608;2023-09-30T09:57:06;18.30;;;6.30;;
22415;SDS011;12204;50.600;4.608;2023-09-30T10:02:14;15.33;;;6.00;;
22415;SDS011;12204;50.600;4.608;2023-09-30T10:07:21;16.45;;;4.95;;
22415;SDS011;12204;50.600;4.608;2023-09-30T10:12:35;27.38;;;7.20;;
22415;SDS011;12204;50.600;4.608;2023-09-30T10:28:32;57.55;;;15.75;;
22415;SDS011;12204;50.600;4.608;2023-09-30T10:45:01;30.65;;;8.40;;
22415;SDS011;12204;50.600;4.608;2023-09-30T10:55:57;29.10;;;7.57;;
22415;SDS011;12204;50.600;4.608;2023-09-30T11:01:03;22.92;;;7.22;;
22415;SDS011;12204;50.600;4.608;2023-09-30T11:06:10;21.05;;;6.25;;
22415;SDS011;12204;50.600;4.608;2023-09-30T11:11:19;23.30;;;5.78;;
22415;SDS011;12204;50.600;4.608;2023-09-30T11:16:42;17.98;;;5.72;;
22415;SDS011;12204;50.600;4.608;2023-09-30T11:21:47;13.67;;;4.70;;
22415;SDS011;12204;50.600;4.608;2023-09-30T11:26:53;12.63;;;4.53;;
22415;SDS011;12204;50.600;4.608;2023-09-30T11:31:58;15.95;;;4.68;;
22415;SDS011;12204;50.600;4.608;2023-09-30T11:37:04;13.38;;;4.38;;
22415;SDS011;12204;50.600;4.608;2023-09-30T11:42:15;11.68;;;4.07;;
22415;SDS011;12204;50.600;4.608;2023-09-30T11:47:27;13.07;;;4.10;;
22415;SDS011;12204;50.600;4.608;2023-09-30T11:52:34;12.73;;;4.25;;
22415;SDS011;12204;50.600;4.608;2023-09-30T11:57:39;12.00;;;4.00;;
22415;SDS011;12204;50.600;4.608;2023-09-30T12:02:43;12.77;;;4.32;;
22415;SDS011;12204;50.600;4.608;2023-09-30T12:07:48;11.93;;;3.60;;
22415;SDS011;12204;50.600;4.608;2023-09-30T12:12:52;11.82;;;3.38;;
22415;SDS011;12204;50.600;4.608;2023-09-30T12:17:55;14.73;;;3.70;;
22415;SDS011;12204;50.600;4.608;2023-09-30T12:23:00;11.23;;;3.72;;
22415;SDS011;12204;50.600;4.608;2023-09-30T12:28:06;12.85;;;3.47;;
22415;SDS011;12204;50.600;4.608;2023-09-30T12:33:11;12.65;;;3.65;;
22415;SDS011;12204;50.600;4.608;2023-09-30T12:38:15;10.57;;;3.30;;
22415;SDS011;12204;50.600;4.608;2023-09-30T12:43:19;9.63;;;3.40;;
22415;SDS011;12204;50.600;4.608;2023-09-30T12:48:23;9.70;;;3.20;;
22415;SDS011;12204;50.600;4.608;2023-09-30T12:53:28;8.68;;;3.08;;
22415;SDS011;12204;50.600;4.608;2023-09-30T12:58:32;8.68;;;3.00;;
22415;SDS011;12204;50.600;4.608;2023-09-30T13:03:35;8.77;;;2.83;;
22415;SDS011;12204;50.600;4.608;2023-09-30T13:08:40;10.45;;;3.08;;
22415;SDS011;12204;50.600;4.608;2023-09-30T13:13:44;8.45;;;2.75;;
22415;SDS011;12204;50.600;4.608;2023-09-30T13:18:48;10.55;;;3.13;;
22415;SDS011;12204;50.600;4.608;2023-09-30T13:23:55;8.73;;;3.08;;
22415;SDS011;12204;50.600;4.608;2023-09-30T13:28:58;10.45;;;2.88;;
22415;SDS011;12204;50.600;4.608;2023-09-30T13:34:02;8.30;;;2.95;;
22415;SDS011;12204;50.600;4.608;2023-09-30T13:39:08;9.18;;;2.88;;
22415;SDS011;12204;50.600;4.608;2023-09-30T13:44:14;7.35;;;2.85;;
22415;SDS011;12204;50.600;4.608;2023-09-30T13:49:18;7.85;;;2.85;;
22415;SDS011;12204;50.600;4.608;2023-09-30T13:54:23;8.80;;;3.00;;
22415;SDS011;12204;50.600;4.608;2023-09-30T13:59:26;8.73;;;2.70;;
22415;SDS011;12204;50.600;4.608;2023-09-30T14:04:30;6.55;;;2.67;;
22415;SDS011;12204;50.600;4.608;2023-09-30T14:09:36;6.87;;;2.53;;
22415;SDS011;12204;50.600;4.608;2023-09-30T14:14:39;7.70;;;2.83;;
22415;SDS011;12204;50.600;4.608;2023-09-30T14:19:43;7.03;;;2.40;;
22415;SDS011;12204;50.600;4.608;2023-09-30T14:24:48;6.25;;;2.42;;
22415;SDS011;12204;50.600;4.608;2023-09-30T14:29:52;7.32;;;2.30;;
22415;SDS011;12204;50.600;4.608;2023-09-30T14:34:55;7.03;;;2.30;;
22415;SDS011;12204;50.600;4.608;2023-09-30T14:40:01;5.75;;;2.30;;
22415;SDS011;12204;50.600;4.608;2023-09-30T14:45:07;7.07;;;2.37;;
22415;SDS011;12204;50.600;4.608;2023-09-30T14:50:12;6.43;;;2.40;;
22415;SDS011;12204;50.600;4.608;2023-09-30T14:55:17;5.55;;;2.03;;
22415;SDS011;12204;50.600;4.608;2023-09-30T15:00:20;6.70;;;2.40;;
22415;SDS011;12204;50.600;4.608;2023-09-30T15:05:26;7.68;;;2.60;;
22415;SDS011;12204;50.600;4.608;2023-09-30T15:10:33;6.03;;;2.25;;
22415;SDS011;12204;50.600;4.608;2023-09-30T15:15:38;6.95;;;2.58;;
22415;SDS011;12204;50.600;4.608;2023-09-30T15:20:42;6.93;;;2.30;;
22415;SDS011;12204;50.600;4.608;2023-09-30T15:25:47;6.95;;;2.30;;
22415;SDS011;12204;50.600;4.608;2023-09-30T15:30:50;8.40;;;2.45;;
22415;SDS011;12204;50.600;4.608;2023-09-30T15:35:54;6.88;;;2.40;;
22415;SDS011;12204;50.600;4.608;2023-09-30T15:40:59;7.25;;;2.25;;
22415;SDS011;12204;50.600;4.608;2023-09-30T15:46:05;6.20;;;2.20;;
22415;SDS011;12204;50.600;4.608;2023-09-30T15:51:10;6.65;;;2.40;;
22415;SDS011;12204;50.600;4.608;2023-09-30T15:56:15;7.47;;;2.60;;
22415;SDS011;12204;50.600;4.608;2023-09-30T16:01:19;11.00;;;2.22;;
22415;SDS011;12204;50.600;4.608;2023-09-30T16:06:22;11.75;;;2.33;;
22415;SDS011;12204;50.600;4.608;2023-09-30T16:11:27;13.60;;;2.45;;
22415;SDS011;12204;50.600;4.608;2023-09-30T16:16:31;8.63;;;2.53;;
22415;SDS011;12204;50.600;4.608;2023-09-30T16:21:35;6.95;;;2.30;;
22415;SDS011;12204;50.600;4.608;2023-09-30T16:26:40;7.28;;;2.30;;
22415;SDS011;12204;50.600;4.608;2023-09-30T16:31:43;8.45;;;2.33;;
22415;SDS011;12204;50.600;4.608;2023-09-30T16:36:47;7.82;;;2.13;;
22415;SDS011;12204;50.600;4.608;2023-09-30T16:41:52;6.40;;;2.10;;
22415;SDS011;12204;50.600;4.608;2023-09-30T16:46:55;6.50;;;2.10;;
22415;SDS011;12204;50.600;4.608;2023-09-30T16:51:59;8.38;;;2.30;;
22415;SDS011;12204;50.600;4.608;2023-09-30T16:57:04;11.02;;;2.30;;
22415;SDS011;12204;50.600;4.608;2023-09-30T17:02:08;12.10;;;2.30;;
22415;SDS011;12204;50.600;4.608;2023-09-30T17:07:37;11.25;;;2.40;;
22415;SDS011;12204;50.600;4.608;2023-09-30T17:13:13;13.38;;;2.30;;
22415;SDS011;12204;50.600;4.608;2023-09-30T17:18:16;12.23;;;2.40;;
22415;SDS011;12204;50.600;4.608;2023-09-30T17:23:21;10.30;;;2.38;;
22415;SDS011;12204;50.600;4.608;2023-09-30T17:28:26;8.38;;;1.95;;
22415;SDS011;12204;50.600;4.608;2023-09-30T17:33:30;10.13;;;2.38;;
22415;SDS011;12204;50.600;4.608;2023-09-30T17:38:35;9.95;;;2.03;;
22415;SDS011;12204;50.600;4.608;2023-09-30T17:43:40;8.90;;;2.10;;
22415;SDS011;12204;50.600;4.608;2023-09-30T17:48:44;10.55;;;2.20;;
22415;SDS011;12204;50.600;4.608;2023-09-30T17:53:50;9.77;;;2.15;;
22415;SDS011;12204;50.600;4.608;2023-09-30T17:58:56;8.57;;;2.35;;
22415;SDS011;12204;50.600;4.608;2023-09-30T18:04:00;8.15;;;2.00;;
22415;SDS011;12204;50.600;4.608;2023-09-30T18:09:04;8.13;;;2.00;;
22415;SDS011;12204;50.600;4.608;2023-09-30T18:14:10;10.10;;;2.38;;
22415;SDS011;12204;50.600;4.608;2023-09-30T18:19:17;9.23;;;2.20;;
22415;SDS011;12204;50.600;4.608;2023-09-30T18:24:22;8.95;;;2.38;;
22415;SDS011;12204;50.600;4.608;2023-09-30T18:29:28;8.05;;;2.20;;
22415;SDS011;12204;50.600;4.608;2023-09-30T18:34:32;8.07;;;2.25;;
22415;SDS011;12204;50.600;4.608;2023-09-30T18:39:36;6.25;;;1.95;;
22415;SDS011;12204;50.600;4.608;2023-09-30T18:44:44;6.78;;;1.92;;
22415;SDS011;12204;50.600;4.608;2023-09-30T18:49:54;8.85;;;2.20;;
22415;SDS011;12204;50.600;4.608;2023-09-30T18:54:57;5.57;;;1.85;;
22415;SDS011;12204;50.600;4.608;2023-09-30T19:00:03;8.35;;;2.40;;
22415;SDS011;12204;50.600;4.608;2023-09-30T19:05:08;9.68;;;2.08;;
22415;SDS011;12204;50.600;4.608;2023-09-30T19:10:13;7.35;;;1.92;;
22415;SDS011;12204;50.600;4.608;2023-09-30T19:28:42;8.30;;;2.10;;
22415;SDS011;12204;50.600;4.608;2023-09-30T19:34:20;7.93;;;2.00;;
22415;SDS011;12204;50.600;4.608;2023-09-30T19:39:27;7.13;;;1.90;;
22415;SDS011;12204;50.600;4.608;2023-09-30T19:44:32;6.78;;;2.08;;
22415;SDS011;12204;50.600;4.608;2023-09-30T19:49:37;7.70;;;2.13;;
22415;SDS011;12204;50.600;4.608;2023-09-30T20:13:34;5.88;;;2.10;;
22415;SDS011;12204;50.600;4.608;2023-09-30T20:18:41;6.72;;;1.80;;
22415;SDS011;12204;50.600;4.608;2023-09-30T20:23:45;5.82;;;1.80;;
22415;SDS011;12204;50.600;4.608;2023-09-30T20:36:19;8.60;;;1.80;;
22415;SDS011;12204;50.600;4.608;2023-09-30T20:41:32;6.25;;;1.80;;
22415;SDS011;12204;50.600;4.608;2023-09-30T20:46:36;7.13;;;1.85;;
22415;SDS011;12204;50.600;4.608;2023-09-30T20:51:43;5.40;;;1.60;;
22415;SDS011;12204;50.600;4.608;2023-09-30T20:56:51;6.20;;;1.67;;
22415;SDS011;12204;50.600;4.608;2023-09-30T21:02:01;10.23;;;2.00;;
22415;SDS011;12204;50.600;4.608;2023-09-30T21:13:25;4.82;;;1.58;;
22415;SDS011;12204;50.600;4.608;2023-09-30T21:18:29;4.95;;;1.58;;
22415;SDS011;12204;50.600;4.608;2023-09-30T21:23:35;6.28;;;1.55;;
22415;SDS011;12204;50.600;4.608;2023-09-30T21:28:39;6.38;;;1.60;;
22415;SDS011;12204;50.600;4.608;2023-09-30T21:34:52;7.45;;;1.73;;
22415;SDS011;12204;50.600;4.608;2023-09-30T21:39:52;8.18;;;1.63;;
22415;SDS011;12204;50.600;4.608;2023-09-30T21:44:55;7.03;;;1.65;;
22415;SDS011;12204;50.600;4.608;2023-09-30T21:50:00;8.07;;;1.60;;
22415;SDS011;12204;50.600;4.608;2023-09-30T21:55:06;6.68;;;1.60;;
22415;SDS011;12204;50.600;4.608;2023-09-30T22:00:12;5.70;;;1.50;;
22415;SDS011;12204;50.600;4.608;2023-09-30T22:05:27;4.93;;;1.50;;
22415;SDS011;12204;50.600;4.608;2023-09-30T22:10:32;5.78;;;1.70;;
22415;SDS011;12204;50.600;4.608;2023-09-30T22:15:36;4.28;;;1.50;;
22415;SDS011;12204;50.600;4.608;2023-09-30T22:20:40;4.32;;;1.35;;
22415;SDS011;12204;50.600;4.608;2023-09-30T22:25:45;4.72;;;1.60;;
22415;SDS011;12204;50.600;4.608;2023-09-30T22:30:50;6.68;;;1.70;;
22415;SDS011;12204;50.600;4.608;2023-09-30T22:35:55;3.97;;;1.50;;
22415;SDS011;12204;50.600;4.608;2023-09-30T22:41:00;7.30;;;1.73;;
22415;SDS011;12204;50.600;4.608;2023-09-30T22:46:04;5.97;;;1.48;;
22415;SDS011;12204;50.600;4.608;2023-09-30T22:51:08;5.15;;;1.55;;
22415;SDS011;12204;50.600;4.608;2023-09-30T22:56:16;3.08;;;1.20;;
22415;SDS011;12204;50.600;4.608;2023-09-30T23:01:22;5.88;;;1.60;;
22415;SDS011;12204;50.600;4.608;2023-09-30T23:06:27;5.45;;;1.45;;
22415;SDS011;12204;50.600;4.608;2023-09-30T23:11:33;4.25;;;1.30;;
22415;SDS011;12204;50.600;4.608;2023-09-30T23:16:37;4.80;;;1.45;;
22415;SDS011;12204;50.600;4.608;2023-09-30T23:21:44;5.47;;;1.33;;
22415;SDS011;12204;50.600;4.608;2023-09-30T23:26:50;7.00;;;1.60;;
22415;SDS011;12204;50.600;4.608;2023-09-30T23:37:02;5.13;;;1.50;;
22415;SDS011;12204;50.600;4.608;2023-09-30T23:42:11;6.03;;;1.57;;
22415;SDS011;12204;50.600;4.608;2023-09-30T23:47:14;7.68;;;1.50;;
22415;SDS011;12204;50.600;4.608;2023-09-30T23:52:18;5.32;;;1.40;;
22415;SDS011;12204;50.600;4.608;2023-09-30T23:57:26;10.00;;;1.50;;
